Palmer, Indiana
Current Conditions -  °F | °C
As of 9:35 PM on Saturday 22 Nov 2014 (Local Time) from KIGQ Reporting Station
Broken Clouds Broken Clouds  
Wind Chill: 51°   Ceiling: 2600
Heat Index: 51°   Visibility: 10mi
Dew Point: 46°   Wind: 15mph
Humidity: 84%   Direction: 220°SW
Pressure: 29.9"   Gusts: 21mph
Location:  41.4039°N, 87.3294°W
Report Text: KIGQ 230335Z AUTO 22013G18KT 10SM BKN026 BKN048 BKN060 11/08 A2990 RMK AO2 T01050079
Loading
Personal Weather Stations






























Interactive Weather Map New forecast layout! Learn more

10-Day Weather Forecast

Advertisements
Track Severe Weather on mobile